Main page
METAR-TAF:

METAR-TAF

Airports :

Meadow Lake Airport

Meadow Lake, Saskatchewan, Canada

latitude: 54-08N, longitude: 108-31W, elevation: 480 m

Current weather observation

The report was made 10 hours and 14 minutes ago, at 00:00 UTC
Wind 8 kt from the East
Temperature 20°C
Humidity 24%
Pressure 1017 hPa
Visibility: 24.1 km
Scattered clouds at a height of 10000 ft

METAR: CYLJ 220000Z 10008KT 15SM SCT100 20/M01 A3002 RMK AC3 LAST STFD OB/NXT 22 1200UTC SLP178 DENSITY ALT 2500FT

Time: 04:14 (10:14 UTC)


TAF: missing

Weather observations and forecasts of more than 4000 airports (METAR and TAF reports).

The available stations are represented by yellow and red dots on the map.

Hover mouse over dot to see the name of the station.

Then click to see weather observations and forecasts.

To change the map : click on the green buttons with a black cross to zoom in, on the green button with a dash to zoom out, or on the green arrows for adjacent maps.


METAR-TAF: